Time;durP1;ratioP1;P1;durP2;ratioP2;P2;SDS_P1;SDS_P2;PMS_P1;PMS_P2;Temp;Humidity;BMP_temperature;BMP_pressure;BME280_temperature;BME280_humidity;BME280_pressure;Samples;Min_cycle;Max_cycle;Signal;HPM_P1;HPM_P2
2021/10/03 00:01:02;;;;;;;30.90;14.35;;;;;;;7.99;61.08;100989.66;5092710;28;20488;-21
2021/10/03 00:03:28;;;;;;;21.60;10.70;;;;;;;8.23;60.32;100995.72;5111330;28;20058;-22
2021/10/03 00:05:55;;;;;;;21.33;10.02;;;;;;;7.97;60.47;100973.06;5110613;28;20402;-21
2021/10/03 00:08:21;;;;;;;15.60;8.68;;;;;;;8.09;60.68;100999.19;5110780;28;20548;-22
2021/10/03 00:10:48;;;;;;;17.90;8.10;;;;;;;8.03;60.45;100990.94;5110758;28;20035;-21
2021/10/03 00:13:13;;;;;;;13.32;7.68;;;;;;;8.38;59.27;100975.34;5092503;28;20604;-21
2021/10/03 00:15:40;;;;;;;12.43;7.25;;;;;;;8.44;59.30;100992.44;5110971;28;20028;-22
2021/10/03 00:18:06;;;;;;;12.25;6.20;;;;;;;8.56;58.70;100974.16;5110519;28;20032;-22
2021/10/03 00:20:32;;;;;;;10.82;5.45;;;;;;;8.69;58.27;100992.16;5110363;28;20055;-21
2021/10/03 00:22:57;;;;;;;11.95;5.50;;;;;;;8.31;59.50;100977.06;5110338;28;20407;-21
2021/10/03 00:25:25;;;;;;;11.30;5.72;;;;;;;8.45;59.08;100994.88;5110333;28;20076;-22
2021/10/03 00:27:51;;;;;;;10.13;5.78;;;;;;;8.69;57.82;100977.03;5109522;28;20039;-21
2021/10/03 00:30:17;;;;;;;12.45;6.05;;;;;;;8.95;57.41;100992.50;5110631;28;20034;-22
2021/10/03 00:32:42;;;;;;;26.80;7.82;;;;;;;9.08;57.40;100989.19;5110017;28;20035;-25
2021/10/03 00:35:08;;;;;;;13.15;6.20;;;;;;;9.22;56.88;100992.81;5110193;28;20903;-22
2021/10/03 00:37:33;;;;;;;14.57;7.13;;;;;;;8.94;57.46;100966.09;5110203;28;20039;-21
2021/10/03 00:39:59;;;;;;;14.45;6.80;;;;;;;8.41;59.73;100982.97;5110092;28;20054;-22
2021/10/03 00:42:25;;;;;;;18.02;7.55;;;;;;;7.83;61.58;100957.91;5110022;28;20042;-21
2021/10/03 00:44:50;;;;;;;13.18;7.40;;;;;;;7.80;61.98;100975.00;5109857;28;20056;-21
2021/10/03 00:47:16;;;;;;;19.58;8.85;;;;;;;7.93;62.31;100977.09;5109950;28;20106;-22
2021/10/03 00:49:43;;;;;;;18.45;9.82;;;;;;;8.56;59.86;100974.16;5109839;28;20511;-21
2021/10/03 00:52:08;;;;;;;17.55;9.73;;;;;;;8.21;60.41;100973.81;5109980;28;20445;-21
2021/10/03 00:54:34;;;;;;;19.08;9.75;;;;;;;7.96;60.76;100955.47;5109625;28;20052;-21
2021/10/03 00:57:00;;;;;;;36.80;20.95;;;;;;;7.59;62.38;100966.88;5109796;28;20513;-21
2021/10/03 00:59:25;;;;;;;19.50;12.05;;;;;;;7.62;62.88;100967.38;5109767;28;20051;-22
2021/10/03 01:01:51;;;;;;;23.65;13.27;;;;;;;7.97;61.26;100953.66;5091511;28;20388;-21
2021/10/03 01:04:17;;;;;;;22.20;11.57;;;;;;;8.42;59.16;100968.69;5091606;28;20023;-22
2021/10/03 01:06:42;;;;;;;21.90;11.57;;;;;;;8.67;58.98;100968.41;5109869;28;20031;-21
2021/10/03 01:09:08;;;;;;;21.27;10.85;;;;;;;7.62;61.65;100946.13;5109612;28;20403;-21
2021/10/03 01:11:33;;;;;;;16.60;9.63;;;;;;;7.24;62.85;100942.56;5109553;28;20033;-27
2021/10/03 01:13:59;;;;;;;15.48;8.45;;;;;;;8.14;60.03;100970.25;5109868;28;20027;-22
2021/10/03 01:16:24;;;;;;;11.60;6.32;;;;;;;8.19;60.01;100957.25;5109467;28;20453;-22
2021/10/03 01:18:50;;;;;;;14.63;6.97;;;;;;;8.42;59.55;100971.34;5090824;28;20023;-21
2021/10/03 01:21:16;;;;;;;25.27;13.18;;;;;;;7.81;60.97;100949.31;5109507;28;20028;-21
2021/10/03 01:23:42;;;;;;;30.05;12.27;;;;;;;7.77;61.60;100954.13;5109432;28;20086;-21
2021/10/03 01:26:08;;;;;;;24.75;12.30;;;;;;;8.08;60.54;100963.00;5109367;28;20216;-21
2021/10/03 01:28:33;;;;;;;22.92;10.43;;;;;;;7.76;61.31;100956.97;5090933;28;20080;-21
2021/10/03 01:30:59;;;;;;;20.00;10.30;;;;;;;7.69;62.42;100961.34;5091215;28;20479;-22
2021/10/03 01:33:26;;;;;;;20.70;9.88;;;;;;;7.92;60.94;100956.00;5109068;28;20077;-21
2021/10/03 01:35:52;;;;;;;17.63;8.48;;;;;;;7.70;62.28;100945.22;5109344;28;20050;-22
2021/10/03 01:38:18;;;;;;;17.85;9.10;;;;;;;7.72;62.73;100958.31;5109153;28;20407;-22
2021/10/03 01:40:45;;;;;;;25.80;11.52;;;;;;;8.01;61.48;100950.44;5115161;28;20554;-21
2021/10/03 01:43:11;;;;;;;30.67;14.38;;;;;;;8.37;60.51;100949.75;5116132;28;20031;-21
2021/10/03 01:45:36;;;;;;;29.60;12.80;;;;;;;8.48;59.92;100940.53;5116435;28;20482;-22
2021/10/03 01:48:12;;;;;;;19.65;10.55;;;;;;;8.56;59.78;100951.09;5115851;28;20538;-21
2021/10/03 01:50:53;;;;;;;30.08;12.13;;;;;;;8.51;60.03;100945.47;5115863;28;20028;-21
2021/10/03 01:53:24;;;;;;;63.63;30.80;;;;;;;8.13;60.15;100899.50;5115687;28;20490;-22
2021/10/03 01:55:50;;;;;;;61.10;28.02;;;;;;;7.74;62.42;100937.72;5116063;28;20020;-22
2021/10/03 01:58:17;;;;;;;48.03;23.83;;;;;;;8.02;61.62;100946.78;5115660;28;20035;-22
2021/10/03 02:00:44;;;;;;;39.53;18.55;;;;;;;7.35;62.10;100951.94;5116089;28;20038;-22
2021/10/03 02:03:09;;;;;;;23.40;10.23;;;;;;;6.58;62.33;100964.09;5115913;28;20039;-21
2021/10/03 02:05:39;;;;;;;17.58;9.65;;;;;;;6.10;63.25;100954.44;5115934;28;20027;-21
2021/10/03 02:08:08;;;;;;;13.95;8.07;;;;;;;5.95;64.30;100949.00;5115864;28;20483;-21
2021/10/03 02:10:35;;;;;;;17.50;9.40;;;;;;;5.86;63.58;100929.59;5115659;28;20027;-21
2021/10/03 02:13:00;;;;;;;14.52;9.48;;;;;;;5.87;64.37;100955.09;5116006;28;20105;-22
2021/10/03 02:15:25;;;;;;;27.85;12.57;;;;;;;6.01;64.33;100935.09;5115773;28;20074;-21
2021/10/03 02:17:51;;;;;;;22.73;10.85;;;;;;;5.97;64.78;100962.88;5116028;28;20027;-22
2021/10/03 02:20:17;;;;;;;22.25;9.90;;;;;;;5.70;64.71;100953.41;5115585;28;20023;-22
2021/10/03 02:22:42;;;;;;;17.15;8.55;;;;;;;5.65;64.21;100964.50;5115566;28;20038;-21
2021/10/03 02:25:08;;;;;;;14.45;8.13;;;;;;;5.54;63.91;100936.56;5097461;28;20023;-22
2021/10/03 02:27:34;;;;;;;21.60;8.82;;;;;;;5.69;64.04;100946.47;5115646;28;20038;-22
2021/10/03 02:30:00;;;;;;;18.83;8.95;;;;;;;5.94;64.42;100956.06;5115690;28;20024;-21
2021/10/03 02:32:25;;;;;;;18.42;9.15;;;;;;;5.84;63.22;100928.94;5115571;28;20063;-22
2021/10/03 02:34:51;;;;;;;25.77;11.05;;;;;;;5.93;63.12;100937.72;5115344;28;20118;-22
2021/10/03 02:37:16;;;;;;;24.38;11.40;;;;;;;6.57;64.02;100949.19;5115912;28;20897;-22
2021/10/03 02:39:42;;;;;;;19.90;10.85;;;;;;;7.02;64.09;100945.00;5115464;28;20046;-22
2021/10/03 02:42:08;;;;;;;24.27;11.52;;;;;;;7.17;64.72;100949.56;5115373;28;20112;-21
2021/10/03 02:44:33;;;;;;;18.35;10.65;;;;;;;7.10;64.00;100957.41;5115475;28;20027;-21
2021/10/03 02:46:59;;;;;;;16.83;9.50;;;;;;;7.22;64.23;100961.31;5115398;28;20132;-21
2021/10/03 02:49:24;;;;;;;18.13;9.73;;;;;;;7.61;63.03;100955.09;5115351;28;20024;-22
2021/10/03 02:51:50;;;;;;;17.13;9.65;;;;;;;7.85;62.56;100954.06;5112600;28;20042;-22
2021/10/03 02:54:16;;;;;;;18.17;9.68;;;;;;;7.97;62.00;100937.72;5112045;28;20056;-22
2021/10/03 02:56:41;;;;;;;15.40;8.52;;;;;;;7.78;62.81;100950.47;5111888;28;20034;-21
2021/10/03 02:59:07;;;;;;;14.00;8.38;;;;;;;7.82;62.76;100940.31;5112122;28;20027;-22
2021/10/03 03:01:32;;;;;;;17.15;9.18;;;;;;;8.12;61.67;100945.72;5112185;28;20028;-21
2021/10/03 03:03:58;;;;;;;15.23;9.10;;;;;;;7.57;63.23;100948.47;5111851;28;20031;-22
2021/10/03 03:06:23;;;;;;;14.27;9.25;;;;;;;7.74;62.88;100943.84;5111961;28;20028;-22
2021/10/03 03:08:49;;;;;;;15.63;9.52;;;;;;;7.99;61.98;100949.81;5112040;28;20039;-21
2021/10/03 03:11:14;;;;;;;17.48;9.25;;;;;;;7.38;63.64;100941.00;5112110;28;20034;-21
2021/10/03 03:13:40;;;;;;;14.75;8.75;;;;;;;7.09;65.25;100954.91;5111869;28;20432;-22
2021/10/03 03:16:05;;;;;;;16.15;9.30;;;;;;;7.29;64.31;100942.03;5111762;28;20023;-22
2021/10/03 03:18:31;;;;;;;14.90;8.45;;;;;;;6.98;65.55;100953.50;5112018;28;20027;-22
2021/10/03 03:20:56;;;;;;;15.27;8.90;;;;;;;7.28;64.37;100927.97;5111432;28;20024;-21
2021/10/03 03:23:22;;;;;;;20.55;9.77;;;;;;;7.06;65.14;100956.09;5093425;28;20153;-22
2021/10/03 03:25:47;;;;;;;16.73;9.18;;;;;;;7.21;64.11;100954.38;5111503;28;20024;-22
2021/10/03 03:28:13;;;;;;;17.20;9.32;;;;;;;7.23;63.59;100952.38;5111616;28;20080;-22
2021/10/03 03:30:39;;;;;;;17.58;9.00;;;;;;;6.97;64.56;100946.56;5111243;28;20058;-21
2021/10/03 03:33:04;;;;;;;17.10;8.50;;;;;;;7.11;63.50;100937.84;5111393;28;20406;-21
2021/10/03 03:35:30;;;;;;;14.80;9.15;;;;;;;7.30;62.73;100919.84;5111463;28;20115;-22
2021/10/03 03:37:55;;;;;;;18.42;9.38;;;;;;;7.33;63.07;100956.59;5111553;28;20024;-22
2021/10/03 03:40:21;;;;;;;18.20;9.77;;;;;;;7.18;63.86;100948.59;5111323;28;20500;-22
2021/10/03 03:42:47;;;;;;;19.13;9.68;;;;;;;7.04;64.54;100971.38;5111153;28;20020;-21
2021/10/03 03:45:12;;;;;;;22.77;10.90;;;;;;;7.03;63.69;100967.88;5111321;28;20027;-22
2021/10/03 03:47:38;;;;;;;19.55;10.45;;;;;;;6.60;63.82;100953.34;5111418;28;20036;-21
2021/10/03 03:50:05;;;;;;;19.90;9.77;;;;;;;6.44;63.05;100955.03;5111097;28;20024;-21
2021/10/03 03:52:31;;;;;;;18.88;9.60;;;;;;;6.83;61.91;100978.09;5111092;28;20028;-22
2021/10/03 03:54:56;;;;;;;26.67;9.95;;;;;;;6.09;63.66;100971.28;5110550;28;20043;-21
2021/10/03 03:57:22;;;;;;;23.02;10.57;;;;;;;6.64;62.54;100981.16;5111052;28;20043;-21
2021/10/03 03:59:47;;;;;;;26.38;9.55;;;;;;;6.22;63.75;100979.56;5110881;28;20027;-22
2021/10/03 04:02:15;;;;;;;25.80;10.82;;;;;;;5.83;64.09;100972.28;5110176;28;20104;-22
2021/10/03 04:04:41;;;;;;;19.67;10.40;;;;;;;5.98;65.05;100978.59;5110220;28;20039;-21
2021/10/03 04:07:06;;;;;;;25.60;11.98;;;;;;;5.81;65.58;100982.22;5110820;28;20111;-21
2021/10/03 04:09:32;;;;;;;29.05;13.35;;;;;;;6.49;62.99;100990.78;5092557;28;20161;-21
2021/10/03 04:11:58;;;;;;;31.30;12.48;;;;;;;6.76;61.40;100955.94;5110671;28;20031;-21
2021/10/03 04:14:23;;;;;;;24.35;11.95;;;;;;;6.35;63.94;100990.47;5110694;28;20501;-22
2021/10/03 04:16:48;;;;;;;23.13;10.73;;;;;;;6.61;63.26;100990.25;5110325;28;20796;-22
2021/10/03 04:19:14;;;;;;;19.75;10.02;;;;;;;6.58;62.28;100997.72;5110495;28;20089;-21
2021/10/03 04:21:39;;;;;;;21.98;10.70;;;;;;;5.80;65.14;100980.53;5110694;28;20035;-21
2021/10/03 04:24:05;;;;;;;23.45;10.35;;;;;;;5.51;66.14;100986.31;5110719;28;20388;-21
2021/10/03 04:26:30;;;;;;;22.35;11.60;;;;;;;5.51;67.37;100995.06;5110445;28;20027;-21
2021/10/03 04:28:56;;;;;;;28.25;13.00;;;;;;;6.07;65.85;100997.13;5110552;28;20038;-21
2021/10/03 04:31:21;;;;;;;35.97;16.02;;;;;;;6.27;63.66;100984.34;5110312;28;20036;-22
2021/10/03 04:33:47;;;;;;;28.88;13.68;;;;;;;5.70;65.11;100993.13;5110146;28;20035;-21
2021/10/03 04:36:12;;;;;;;32.35;12.27;;;;;;;5.31;66.02;100980.47;5110652;28;20035;-21
2021/10/03 04:38:38;;;;;;;24.65;12.23;;;;;;;5.64;66.04;100986.69;5109835;28;20032;-21
2021/10/03 04:41:04;;;;;;;25.77;12.27;;;;;;;5.64;67.09;100990.16;5092016;28;20387;-21
2021/10/03 04:43:29;;;;;;;21.25;12.07;;;;;;;5.87;67.04;100981.56;5110193;28;20027;-21
2021/10/03 04:45:55;;;;;;;22.65;13.23;;;;;;;6.41;64.98;100997.75;5110058;28;20074;-22
2021/10/03 04:48:20;;;;;;;25.75;12.15;;;;;;;6.67;64.47;101009.13;5109902;28;20035;-21
2021/10/03 04:50:46;;;;;;;27.15;11.93;;;;;;;6.94;62.61;100999.91;5109890;28;20039;-21
2021/10/03 04:53:11;;;;;;;27.40;12.07;;;;;;;7.29;61.69;101003.88;5109658;28;20035;-22
2021/10/03 04:55:37;;;;;;;23.75;11.82;;;;;;;7.00;62.77;101009.84;5109787;28;20080;-20
2021/10/03 04:58:02;;;;;;;27.30;12.90;;;;;;;7.31;61.20;101001.06;5109827;28;20038;-21
2021/10/03 05:00:28;;;;;;;27.30;11.50;;;;;;;7.36;60.97;101006.69;5109836;28;20107;-21
2021/10/03 05:02:54;;;;;;;23.17;12.35;;;;;;;7.37;61.99;101010.97;5109753;28;20487;-21
2021/10/03 05:05:20;;;;;;;21.63;11.00;;;;;;;7.40;61.69;101000.03;5110072;28;20023;-21
2021/10/03 05:07:46;;;;;;;20.27;11.18;;;;;;;7.58;61.20;101019.16;5109796;28;20032;-22
2021/10/03 05:10:11;;;;;;;19.73;11.40;;;;;;;7.00;63.17;101026.56;5109511;28;20035;-21
2021/10/03 05:12:37;;;;;;;23.80;12.32;;;;;;;6.55;65.28;101009.47;5109429;28;20388;-21
2021/10/03 05:15:03;;;;;;;24.35;13.90;;;;;;;6.64;66.72;101026.22;5109135;28;20055;-21
2021/10/03 05:17:30;;;;;;;24.05;13.73;;;;;;;6.83;66.61;101025.00;5109583;28;20080;-22
2021/10/03 05:19:56;;;;;;;23.10;12.02;;;;;;;7.15;64.76;101013.44;5109475;28;20472;-21
2021/10/03 05:22:22;;;;;;;30.05;15.93;;;;;;;7.38;65.46;101017.97;5109528;28;20031;-21
2021/10/03 05:24:48;;;;;;;21.77;12.98;;;;;;;7.37;65.47;101010.97;5109105;28;20031;-21
2021/10/03 05:27:13;;;;;;;25.52;14.57;;;;;;;7.51;65.51;101028.00;5109860;28;20079;-21
2021/10/03 05:29:38;;;;;;;19.63;13.48;;;;;;;8.15;63.72;101025.03;5109528;28;20030;-21
2021/10/03 05:32:04;;;;;;;22.75;15.27;;;;;;;8.35;63.01;101022.69;5109345;28;20038;-21
2021/10/03 05:34:30;;;;;;;19.55;13.25;;;;;;;7.96;63.64;101021.88;5109556;28;20123;-22
2021/10/03 05:36:55;;;;;;;72.88;38.95;;;;;;;8.37;63.20;101018.84;5109149;28;20027;-21
2021/10/03 05:39:21;;;;;;;30.55;17.98;;;;;;;8.64;62.12;101036.09;5109138;28;20027;-21
2021/10/03 05:41:46;;;;;;;30.50;17.10;;;;;;;8.68;62.13;101031.19;5109292;28;20147;-22
2021/10/03 05:44:11;;;;;;;24.35;14.43;;;;;;;8.49;63.62;101031.75;5091241;28;20040;-21
2021/10/03 05:46:37;;;;;;;22.20;13.15;;;;;;;8.29;64.72;101026.09;5108980;28;20035;-21
2021/10/03 05:49:02;;;;;;;22.85;13.05;;;;;;;8.71;64.33;101038.00;5109213;28;20027;-22
2021/10/03 05:51:28;;;;;;;29.17;16.42;;;;;;;8.95;62.87;101027.09;5109204;28;20039;-22
2021/10/03 05:53:53;;;;;;;22.50;13.75;;;;;;;8.92;62.87;101019.47;5108880;28;20051;-21
2021/10/03 05:56:19;;;;;;;22.85;13.48;;;;;;;9.21;62.10;101015.97;5109287;28;20113;-21
2021/10/03 05:58:44;;;;;;;20.80;13.55;;;;;;;9.48;61.39;101048.22;5108859;28;20081;-21
2021/10/03 06:01:10;;;;;;;16.30;11.15;;;;;;;9.45;61.19;101038.75;5109016;28;20030;-21
2021/10/03 06:03:35;;;;;;;19.38;11.18;;;;;;;9.51;61.19;101033.69;5108999;28;20488;-21
2021/10/03 06:06:01;;;;;;;22.42;11.15;;;;;;;9.91;60.31;101047.41;5109269;28;20036;-21
2021/10/03 06:08:26;;;;;;;14.43;9.98;;;;;;;9.73;59.95;101045.22;5108974;28;20023;-21
2021/10/03 06:10:52;;;;;;;16.00;10.30;;;;;;;9.61;60.04;101019.06;5108840;28;20511;-21
2021/10/03 06:13:17;;;;;;;16.20;10.07;;;;;;;9.50;60.46;101019.56;5108863;28;20055;-21
2021/10/03 06:15:43;;;;;;;19.63;11.18;;;;;;;10.12;59.95;101049.25;5108921;28;20031;-21
2021/10/03 06:18:14;;;;;;;19.23;11.45;;;;;;;9.98;60.17;101057.13;5109387;28;20150;-21
2021/10/03 06:20:41;;;;;;;21.60;13.68;;;;;;;10.21;59.79;101037.44;5090494;28;20031;-21
2021/10/03 06:23:07;;;;;;;28.08;14.65;;;;;;;10.41;59.02;101049.13;5108748;28;20020;-21
2021/10/03 06:25:32;;;;;;;13.60;9.23;;;;;;;10.21;58.80;101032.09;5108755;28;20104;-21
2021/10/03 06:27:58;;;;;;;14.75;8.40;;;;;;;10.28;58.52;101030.34;5112713;28;20034;-21
2021/10/03 06:30:23;;;;;;;15.05;8.80;;;;;;;10.36;58.66;101048.88;5112735;28;20031;-21
2021/10/03 06:32:49;;;;;;;16.13;8.90;;;;;;;10.59;57.88;101040.63;5112502;28;20027;-21
2021/10/03 06:35:14;;;;;;;14.20;7.85;;;;;;;11.04;57.06;101058.97;5094470;28;20114;-22
2021/10/03 06:37:40;;;;;;;16.02;8.50;;;;;;;11.12;56.64;101060.66;5112468;28;20031;-21
2021/10/03 06:40:06;;;;;;;16.17;7.70;;;;;;;11.22;57.10;101053.91;5112563;28;20476;-22
2021/10/03 06:42:32;;;;;;;14.75;7.20;;;;;;;11.21;56.69;101054.09;5112843;28;20055;-21
2021/10/03 06:44:57;;;;;;;16.90;6.78;;;;;;;11.58;55.52;101060.00;5112174;28;20046;-21
2021/10/03 06:47:23;;;;;;;10.95;6.45;;;;;;;11.67;55.74;101053.47;5112529;28;20038;-21
2021/10/03 06:49:48;;;;;;;12.15;6.28;;;;;;;11.88;54.53;101049.78;5112378;28;20403;-21
2021/10/03 06:52:13;;;;;;;11.45;6.05;;;;;;;12.12;53.46;101045.75;5112157;28;20035;-21
2021/10/03 06:54:39;;;;;;;14.02;6.68;;;;;;;12.08;53.97;101044.50;5111770;28;20059;-22
2021/10/03 06:57:05;;;;;;;10.43;5.78;;;;;;;12.38;53.04;101046.75;5112100;28;20073;-21
2021/10/03 06:59:32;;;;;;;7.43;5.03;;;;;;;12.15;53.23;101036.47;5093843;28;20047;-21
2021/10/03 07:01:59;;;;;;;11.23;6.15;;;;;;;12.15;53.04;101055.19;5112112;28;20031;-21
2021/10/03 07:04:26;;;;;;;9.60;4.72;;;;;;;12.09;53.41;101039.97;5094015;28;20027;-22
2021/10/03 07:06:51;;;;;;;9.65;5.13;;;;;;;12.34;52.55;101049.03;5111625;28;20076;-21
2021/10/03 07:09:17;;;;;;;8.88;5.72;;;;;;;12.49;52.26;101046.16;5112435;28;20464;-22
2021/10/03 07:11:42;;;;;;;10.88;5.40;;;;;;;12.46;52.50;101046.53;5093603;28;20028;-21
2021/10/03 07:14:08;;;;;;;9.82;5.72;;;;;;;12.41;53.10;101047.19;5111897;28;20034;-21
2021/10/03 07:16:33;;;;;;;10.50;5.18;;;;;;;12.72;52.60;101045.69;5111575;28;20038;-21
2021/10/03 07:18:59;;;;;;;9.20;5.00;;;;;;;12.81;51.90;101049.81;5111754;28;20023;-21
2021/10/03 07:21:24;;;;;;;11.18;5.43;;;;;;;13.05;51.08;101045.59;5093365;28;20085;-21
2021/10/03 07:23:50;;;;;;;8.68;4.78;;;;;;;13.52;50.58;101050.78;5111735;28;20043;-21
2021/10/03 07:26:15;;;;;;;9.52;5.55;;;;;;;13.81;49.48;101051.25;5093380;28;20032;-21
2021/10/03 07:28:41;;;;;;;13.00;5.90;;;;;;;13.63;50.19;101057.34;5111205;28;20096;-21
2021/10/03 07:31:07;;;;;;;9.23;4.80;;;;;;;13.85;49.06;101061.34;5111396;28;20034;-21
2021/10/03 07:33:32;;;;;;;10.13;5.45;;;;;;;13.89;48.92;101056.34;5111269;28;20423;-21
2021/10/03 07:35:58;;;;;;;10.70;5.45;;;;;;;13.69;48.77;101035.06;5111267;28;20024;-21
2021/10/03 07:38:23;;;;;;;10.45;5.07;;;;;;;13.74;48.62;101059.34;5111160;28;20467;-21
2021/10/03 07:40:49;;;;;;;9.30;5.40;;;;;;;13.90;48.69;101049.97;5111065;28;20032;-21
2021/10/03 07:43:14;;;;;;;7.97;4.47;;;;;;;14.07;48.02;101050.25;5111176;28;20028;-21
2021/10/03 07:45:40;;;;;;;10.55;4.78;;;;;;;14.31;47.71;101059.34;5093173;28;20059;-21
2021/10/03 07:48:05;;;;;;;9.35;4.57;;;;;;;14.65;47.37;101054.56;5111394;28;20035;-21
2021/10/03 07:50:31;;;;;;;7.72;4.30;;;;;;;15.01;46.35;101045.69;5092980;28;20026;-21
2021/10/03 07:52:56;;;;;;;10.95;4.68;;;;;;;14.70;47.62;101046.63;5092703;28;20035;-21
2021/10/03 07:55:28;;;;;;;9.30;5.03;;;;;;;15.25;46.19;101046.63;5110969;28;20056;-21
2021/10/03 07:57:54;;;;;;;12.35;4.78;;;;;;;15.65;45.25;101048.81;5093862;28;20834;-21
2021/10/03 08:00:20;;;;;;;11.13;4.63;;;;;;;15.78;44.96;101041.63;5111181;28;20081;-21
2021/10/03 08:02:45;;;;;;;6.85;4.18;;;;;;;16.06;44.65;101049.88;5110764;28;20626;-21
2021/10/03 08:05:12;;;;;;;7.40;4.20;;;;;;;16.22;43.69;101026.88;5110901;28;20732;-21
2021/10/03 08:07:38;;;;;;;10.40;4.03;;;;;;;16.15;43.13;101046.84;5111191;28;20482;-21
2021/10/03 08:10:05;;;;;;;8.00;4.13;;;;;;;16.21;43.88;101037.84;5110857;28;20902;-21
2021/10/03 08:12:31;;;;;;;8.95;4.20;;;;;;;16.59;42.90;101036.56;5110532;28;20039;-21
2021/10/03 08:14:57;;;;;;;8.70;4.15;;;;;;;16.59;41.94;101033.88;5110556;28;20028;-21
2021/10/03 08:17:22;;;;;;;12.02;4.82;;;;;;;16.37;42.62;101022.91;5110639;28;20115;-21
2021/10/03 08:19:48;;;;;;;9.95;4.50;;;;;;;16.58;43.10;101034.94;5092239;28;20106;-21
2021/10/03 08:22:13;;;;;;;7.15;4.10;;;;;;;16.65;42.04;101041.00;5110655;28;20483;-21
2021/10/03 08:24:39;;;;;;;9.48;4.55;;;;;;;16.85;42.21;101036.09;5110240;28;20028;-21
2021/10/03 08:27:04;;;;;;;9.00;4.50;;;;;;;17.20;41.39;101043.31;5110441;28;20072;-22
2021/10/03 08:29:30;;;;;;;9.73;4.30;;;;;;;16.75;41.77;101043.94;5110307;28;20054;-22
2021/10/03 08:31:55;;;;;;;8.55;4.53;;;;;;;16.91;41.89;101038.91;5110236;28;20035;-21
2021/10/03 08:34:21;;;;;;;7.60;3.97;;;;;;;17.06;40.91;101033.84;5110119;28;20043;-21
2021/10/03 08:36:46;;;;;;;9.00;3.70;;;;;;;17.31;41.44;101033.53;5110184;28;20480;-21
2021/10/03 08:39:12;;;;;;;7.15;3.92;;;;;;;17.66;39.34;101040.66;5110302;28;20031;-21
2021/10/03 08:41:37;;;;;;;8.98;4.32;;;;;;;17.46;39.78;101035.72;5110218;28;20039;-21
2021/10/03 08:44:03;;;;;;;9.45;4.50;;;;;;;17.82;39.71;101033.66;5110279;28;20024;-22
2021/10/03 08:46:28;;;;;;;10.23;4.35;;;;;;;17.88;39.10;101043.53;5110063;28;20110;-21
2021/10/03 08:48:55;;;;;;;10.98;4.10;;;;;;;17.82;38.67;101037.19;5109062;28;20028;-21
2021/10/03 08:51:20;;;;;;;7.20;4.20;;;;;;;17.79;39.12;101007.97;5110018;28;20034;-21
2021/10/03 08:53:46;;;;;;;8.50;4.00;;;;;;;17.90;38.17;101011.72;5109649;28;20427;-21
2021/10/03 08:56:12;;;;;;;9.30;4.22;;;;;;;18.29;38.78;101006.38;5109665;28;20066;-21
2021/10/03 08:58:38;;;;;;;7.60;4.40;;;;;;;18.20;38.81;101018.66;5109581;28;20157;-21
2021/10/03 09:01:05;;;;;;;8.48;4.35;;;;;;;18.09;38.80;101008.78;5109884;28;20506;-21
2021/10/03 09:03:30;;;;;;;7.63;3.90;;;;;;;18.07;39.07;101009.81;5109148;28;20648;-21
2021/10/03 09:05:59;;;;;;;12.88;4.38;;;;;;;18.23;38.32;100996.56;5091372;28;20043;-21
2021/10/03 09:08:28;;;;;;;6.43;3.63;;;;;;;18.57;38.09;101013.53;5109594;28;20409;-21
2021/10/03 09:11:04;;;;;;;8.50;3.75;;;;;;;18.77;37.75;101015.69;5109585;28;20061;-21
2021/10/03 09:13:32;;;;;;;10.32;3.83;;;;;;;18.81;38.05;101008.75;5109997;28;20031;-21
2021/10/03 09:16:08;;;;;;;6.68;2.90;;;;;;;19.04;37.77;101012.25;5109607;28;20039;-21
2021/10/03 09:18:40;;;;;;;9.52;3.33;;;;;;;19.23;36.97;101010.88;5109225;28;20028;-20
2021/10/03 09:21:06;;;;;;;9.68;3.55;;;;;;;19.22;36.56;101009.22;5109479;28;20030;-21
2021/10/03 09:23:32;;;;;;;6.85;3.15;;;;;;;19.56;35.88;100987.41;5109639;28;20027;-21
2021/10/03 09:25:58;;;;;;;4.93;3.17;;;;;;;19.35;36.43;100996.38;5109494;28;20088;-21
2021/10/03 09:28:23;;;;;;;6.10;3.53;;;;;;;19.55;36.22;101006.59;5109602;28;20115;-21
2021/10/03 09:30:54;;;;;;;9.05;2.70;;;;;;;19.14;36.38;101001.56;5108885;28;20457;-21
2021/10/03 09:33:20;;;;;;;6.03;3.17;;;;;;;19.07;36.95;101000.97;5109332;28;20660;-21
2021/10/03 09:35:59;;;;;;;3.25;2.30;;;;;;;19.52;35.30;100996.31;5109309;28;20107;-21
2021/10/03 09:38:28;;;;;;;6.45;2.80;;;;;;;19.90;34.55;100998.03;5109261;28;20019;-21
2021/10/03 09:41:05;;;;;;;6.10;2.80;;;;;;;20.10;34.87;100985.72;5109089;28;20034;-21
2021/10/03 09:43:57;;;;;;;6.28;2.50;;;;;;;20.59;33.12;100980.88;5109458;28;20439;-21
2021/10/03 09:46:35;;;;;;;7.57;2.75;;;;;;;20.55;33.55;100978.94;5109024;28;20124;-21
2021/10/03 09:49:02;;;;;;;7.28;2.85;;;;;;;20.59;33.79;100983.59;5109341;28;20110;-21
2021/10/03 09:51:27;;;;;;;8.60;3.80;;;;;;;20.54;33.83;100964.59;5109162;28;20040;-21
2021/10/03 09:53:53;;;;;;;4.70;2.53;;;;;;;20.70;32.98;100973.63;5108903;28;20048;-21
2021/10/03 09:56:18;;;;;;;5.68;2.70;;;;;;;20.89;33.18;100956.91;5109124;28;20028;-21
2021/10/03 09:58:46;;;;;;;6.40;2.85;;;;;;;20.67;33.23;100957.91;5108756;28;20483;-21
2021/10/03 10:01:11;;;;;;;7.45;3.10;;;;;;;20.78;32.80;100965.00;5111960;28;20100;-21
2021/10/03 10:03:37;;;;;;;4.35;2.45;;;;;;;20.71;32.84;100966.31;5113196;28;20039;-21
2021/10/03 10:06:03;;;;;;;4.75;2.90;;;;;;;20.51;32.69;100965.09;5113193;28;20063;-21
2021/10/03 10:08:30;;;;;;;5.47;2.63;;;;;;;20.96;31.82;100965.59;5113420;28;20058;-21
2021/10/03 10:10:57;;;;;;;7.97;3.28;;;;;;;21.00;32.10;100958.56;5112927;28;20027;-21
2021/10/03 10:13:22;;;;;;;4.60;2.53;;;;;;;21.40;31.94;100949.69;5078209;28;20031;-21
2021/10/03 10:15:48;;;;;;;6.90;2.53;;;;;;;21.36;32.21;100947.78;5095030;28;20529;-21
2021/10/03 10:18:32;;;;;;;6.00;3.13;;;;;;;21.13;32.82;100949.13;5094987;28;20809;-21
2021/10/03 10:20:57;;;;;;;5.68;2.72;;;;;;;21.64;31.61;100949.22;5094563;28;20035;-21
2021/10/03 10:23:27;;;;;;;8.05;2.83;;;;;;;22.19;30.58;100955.66;5112886;28;20039;-21
2021/10/03 10:25:54;;;;;;;5.65;2.65;;;;;;;22.28;30.80;100953.22;5112793;28;20103;-21
2021/10/03 10:28:29;;;;;;;6.47;2.60;;;;;;;21.96;30.61;100946.19;5112756;28;20027;-21
2021/10/03 10:31:14;;;;;;;5.63;2.60;;;;;;;22.25;30.40;100943.72;5112457;28;20030;-21
2021/10/03 10:33:53;;;;;;;7.95;2.85;;;;;;;22.27;30.77;100936.13;5112610;28;20036;-21
2021/10/03 10:36:25;;;;;;;4.80;2.78;;;;;;;22.25;30.42;100929.31;5112748;28;20069;-21
2021/10/03 10:39:08;;;;;;;6.18;2.55;;;;;;;22.02;30.71;100933.41;5112312;28;20031;-21
2021/10/03 10:41:47;;;;;;;4.80;2.95;;;;;;;22.33;31.13;100914.34;5112535;28;20019;-21
2021/10/03 10:44:26;;;;;;;6.90;2.85;;;;;;;22.38;31.12;100920.59;5112423;28;20031;-21
2021/10/03 10:46:55;;;;;;;7.93;3.28;;;;;;;22.42;30.27;100910.78;5112308;28;20514;-21
2021/10/03 10:49:23;;;;;;;5.43;2.67;;;;;;;22.72;29.88;100919.91;5112346;28;20111;-21
2021/10/03 10:52:18;;;;;;;4.53;2.45;;;;;;;23.08;29.21;100916.22;5112628;28;20031;-21
2021/10/03 10:55:02;;;;;;;5.47;2.42;;;;;;;24.09;28.29;100907.47;5082780;28;20052;-21
2021/10/03 10:57:31;;;;;;;10.18;2.83;;;;;;;24.21;27.62;100910.59;5092016;28;20035;-21
2021/10/03 11:00:16;;;;;;;5.70;2.83;;;;;;;24.05;27.03;100908.06;5074090;28;20024;-21
2021/10/03 11:02:51;;;;;;;4.85;2.50;;;;;;;23.49;28.84;100908.53;5091288;28;20064;-21
2021/10/03 11:05:32;;;;;;;7.20;2.50;;;;;;;23.60;28.79;100907.38;5091648;28;20028;-21
2021/10/03 11:08:04;;;;;;;4.95;2.47;;;;;;;22.67;30.00;100892.75;5091761;28;20416;-21
2021/10/03 11:10:29;;;;;;;4.20;2.42;;;;;;;22.78;29.48;100898.94;5091808;28;20028;-20
2021/10/03 11:12:55;;;;;;;6.95;2.85;;;;;;;22.67;29.45;100890.03;5091036;28;20051;-21
2021/10/03 11:15:21;;;;;;;5.78;2.65;;;;;;;23.00;29.11;100865.91;5073576;28;20039;-21
2021/10/03 11:17:46;;;;;;;6.25;2.80;;;;;;;23.55;28.43;100877.47;5091318;28;20097;-21
2021/10/03 11:20:12;;;;;;;5.75;2.47;;;;;;;22.59;29.63;100883.25;5091616;28;20527;-21